createdAt,value
2018-02-19T00:00:53.694Z,6.29
2018-02-19T00:05:58.097Z,6.27
2018-02-19T00:11:08.206Z,6.13
2018-02-19T00:16:14.293Z,6.26
2018-02-19T00:21:19.994Z,6.09
2018-02-19T00:26:24.862Z,6.17
2018-02-19T00:31:34.706Z,6.05
2018-02-19T00:36:39.874Z,6.00
2018-02-19T00:41:45.265Z,6.04
2018-02-19T00:46:50.197Z,6.02
2018-02-19T00:51:58.553Z,6.07
2018-02-19T00:57:02.945Z,6.04
2018-02-19T01:02:12.688Z,5.99
2018-02-19T01:07:18.389Z,6.07
2018-02-19T01:12:27.645Z,6.34
2018-02-19T01:17:32.033Z,6.14
2018-02-19T01:22:37.648Z,6.07
2018-02-19T01:27:42.914Z,5.94
2018-02-19T01:32:51.397Z,5.98
2018-02-19T01:37:56.538Z,6.08
2018-02-19T01:43:00.866Z,5.92
2018-02-19T01:48:05.576Z,5.82
2018-02-19T01:53:09.653Z,5.80
2018-02-19T01:58:20.178Z,5.84
2018-02-19T02:03:24.053Z,5.91
2018-02-19T02:08:29.029Z,5.64
2018-02-19T02:13:33.342Z,5.65
2018-02-19T02:18:41.569Z,5.82
2018-02-19T02:23:45.965Z,5.69
2018-02-19T02:28:51.350Z,5.67
2018-02-19T02:33:55.798Z,5.66
2018-02-19T02:39:03.394Z,5.61
2018-02-19T02:44:07.833Z,5.58
2018-02-19T02:49:14.538Z,5.44
2018-02-19T02:54:19.958Z,5.47
2018-02-19T02:59:30.074Z,5.54
2018-02-19T03:04:35.390Z,5.53
2018-02-19T03:09:39.877Z,5.43
2018-02-19T03:14:44.574Z,5.49
2018-02-19T03:19:53.153Z,5.48
2018-02-19T03:24:57.936Z,5.49
2018-02-19T03:30:02.457Z,5.49
2018-02-19T03:35:07.325Z,5.36
2018-02-19T03:40:12.456Z,5.45
2018-02-19T03:45:17.393Z,5.37
2018-02-19T03:50:22.814Z,5.33
2018-02-19T03:55:27.958Z,5.43
2018-02-19T04:00:34.367Z,5.39
2018-02-19T04:05:38.785Z,5.41
2018-02-19T04:10:43.458Z,5.43
2018-02-19T04:15:47.567Z,5.48
2018-02-19T04:20:55.732Z,5.32
2018-02-19T04:26:00.432Z,5.45
2018-02-19T04:31:09.172Z,5.34
2018-02-19T04:36:14.397Z,5.33
2018-02-19T04:41:22.770Z,5.33
2018-02-19T04:46:43.137Z,5.35
2018-02-19T04:51:52.326Z,5.50
2018-02-19T04:56:57.513Z,5.27
2018-02-19T05:02:07.195Z,5.37
2018-02-19T05:07:11.634Z,5.18
2018-02-19T05:12:16.555Z,5.31
2018-02-19T05:17:21.557Z,5.30
2018-02-19T05:22:26.218Z,5.26
2018-02-19T05:27:30.449Z,5.48
2018-02-19T05:32:35.586Z,5.24
2018-02-19T05:37:45.614Z,5.28
2018-02-19T05:42:51.139Z,5.35
2018-02-19T05:48:08.829Z,5.25
2018-02-19T05:53:14.481Z,5.34
2018-02-19T05:58:20.334Z,5.24
2018-02-19T06:03:25.038Z,5.26
2018-02-19T06:08:33.977Z,5.29
2018-02-19T06:13:39.889Z,5.38
2018-02-19T06:18:47.212Z,5.36
2018-02-19T06:23:52.635Z,5.21
2018-02-19T06:28:58.178Z,5.16
2018-02-19T06:34:03.662Z,5.09
2018-02-19T06:39:12.325Z,5.07
2018-02-19T06:44:16.854Z,5.24
2018-02-19T06:49:21.891Z,5.06
2018-02-19T06:54:26.567Z,5.12
2018-02-19T06:59:33.076Z,5.91
2018-02-19T07:04:37.587Z,5.98
2018-02-19T07:09:45.593Z,5.41
2018-02-19T07:14:49.723Z,5.16
2018-02-19T07:19:57.677Z,5.23
2018-02-19T07:25:03.943Z,5.08
2018-02-19T07:30:11.556Z,4.85
2018-02-19T07:35:16.211Z,4.95
2018-02-19T07:40:24.758Z,5.06
2018-02-19T07:45:30.253Z,5.06
2018-02-19T07:50:36.575Z,5.01
2018-02-19T07:55:42.718Z,5.03
2018-02-19T08:00:49.257Z,4.98
2018-02-19T08:05:53.897Z,4.87
2018-02-19T08:11:05.064Z,4.97
2018-02-19T08:16:09.465Z,5.14
2018-02-19T08:21:20.418Z,5.11
2018-02-19T08:26:25.677Z,5.23
2018-02-19T08:31:36.153Z,5.22
2018-02-19T08:36:40.933Z,5.11
2018-02-19T08:41:53.626Z,5.22
2018-02-19T08:46:58.734Z,5.17
2018-02-19T08:52:03.565Z,5.33
2018-02-19T08:57:11.182Z,5.37
2018-02-19T09:02:16.786Z,5.47
2018-02-19T09:07:22.101Z,5.31
2018-02-19T09:12:27.218Z,5.39
2018-02-19T09:17:44.328Z,5.43
2018-02-19T09:22:49.249Z,5.46
2018-02-19T09:27:56.997Z,5.47
2018-02-19T09:33:01.694Z,5.43
2018-02-19T09:38:07.968Z,5.39
2018-02-19T09:43:12.500Z,5.60
2018-02-19T09:48:21.682Z,5.63
2018-02-19T09:53:27.074Z,5.58
2018-02-19T09:58:36.664Z,5.50
2018-02-19T10:03:42.273Z,5.52
2018-02-19T10:08:53.400Z,5.56
2018-02-19T10:13:57.933Z,5.77
2018-02-19T10:19:10.031Z,5.43
2018-02-19T10:24:15.008Z,5.66
2018-02-19T10:29:23.070Z,5.50
2018-02-19T10:34:28.116Z,5.37
2018-02-19T10:39:33.978Z,5.32
2018-02-19T10:44:38.549Z,5.37
2018-02-19T10:49:44.089Z,5.07
2018-02-19T10:54:49.150Z,5.32
2018-02-19T11:00:00.530Z,5.24
2018-02-19T11:05:05.080Z,4.92
2018-02-19T11:10:14.783Z,5.11
2018-02-19T11:15:19.541Z,5.21
2018-02-19T11:20:29.559Z,5.14
2018-02-19T11:25:34.448Z,4.76
2018-02-19T11:30:40.366Z,4.80
2018-02-19T11:35:45.321Z,5.03
2018-02-19T11:40:49.953Z,4.79
2018-02-19T11:45:54.506Z,4.90
2018-02-19T11:51:06.167Z,4.99
2018-02-19T11:56:10.555Z,4.97
2018-02-19T12:01:19.886Z,4.86
2018-02-19T12:06:24.932Z,5.07
2018-02-19T12:11:29.015Z,4.83
2018-02-19T12:16:36.999Z,4.63
2018-02-19T12:21:43.066Z,4.56
2018-02-19T12:26:54.482Z,4.69
2018-02-19T12:31:59.850Z,4.63
2018-02-19T12:37:06.422Z,4.76
2018-02-19T12:42:11.309Z,4.66
2018-02-19T12:47:26.363Z,4.52
2018-02-19T12:52:30.825Z,4.50
2018-02-19T12:57:37.782Z,4.37
2018-02-19T13:02:42.329Z,4.30
2018-02-19T13:07:50.888Z,4.37
2018-02-19T13:12:54.941Z,4.28
2018-02-19T13:17:59.932Z,4.48
2018-02-19T13:23:05.013Z,4.54
2018-02-19T13:28:16.565Z,4.17
2018-02-19T13:33:21.244Z,4.12
2018-02-19T13:38:25.586Z,4.22
2018-02-19T13:43:48.162Z,4.13
2018-02-19T13:49:00.218Z,4.15
2018-02-19T13:54:05.593Z,4.11
2018-02-19T13:59:13.838Z,3.98
2018-02-19T14:04:18.502Z,3.86
2018-02-19T14:09:28.269Z,4.17
2018-02-19T14:14:32.873Z,3.88
2018-02-19T14:19:37.197Z,4.00
2018-02-19T14:24:41.997Z,3.89
2018-02-19T14:29:47.373Z,3.81
2018-02-19T14:34:51.481Z,3.85
2018-02-19T14:39:59.754Z,3.89
2018-02-19T14:45:05.130Z,3.75
2018-02-19T14:50:11.773Z,3.74
2018-02-19T14:55:16.998Z,3.80
2018-02-19T15:00:28.510Z,3.80
2018-02-19T15:05:33.424Z,3.76
2018-02-19T15:10:49.850Z,3.80
2018-02-19T15:15:55.091Z,3.87
2018-02-19T15:20:59.885Z,3.67
2018-02-19T15:26:18.510Z,3.62
2018-02-19T15:31:22.741Z,3.68
2018-02-19T15:36:29.966Z,3.82
2018-02-19T15:41:34.913Z,3.74
2018-02-19T15:46:40.774Z,3.84
2018-02-19T15:51:45.926Z,3.85
2018-02-19T15:56:54.640Z,3.71
2018-02-19T16:01:59.565Z,3.62
2018-02-19T16:07:05.838Z,3.64
2018-02-19T16:12:11.005Z,3.61
2018-02-19T16:17:15.899Z,3.53
2018-02-19T16:22:21.466Z,3.64
2018-02-19T16:27:26.746Z,3.56
2018-02-19T16:32:33.097Z,3.66
2018-02-19T16:37:41.830Z,3.74
2018-02-19T16:42:45.950Z,3.59
2018-02-19T16:47:50.571Z,3.48
2018-02-19T16:52:54.505Z,3.71
2018-02-19T16:57:59.862Z,3.65
2018-02-19T17:03:05.030Z,3.88
2018-02-19T17:08:13.326Z,3.59
2018-02-19T17:13:18.130Z,3.81
2018-02-19T17:18:27.642Z,3.70
2018-02-19T17:23:33.482Z,3.54
2018-02-19T17:28:41.049Z,3.36
2018-02-19T17:33:45.931Z,3.35
2018-02-19T17:38:54.125Z,3.38
2018-02-19T17:43:59.686Z,3.49
2018-02-19T17:49:10.313Z,3.35
2018-02-19T17:54:14.968Z,3.43
2018-02-19T17:59:22.762Z,3.57
2018-02-19T18:04:27.737Z,3.56
2018-02-19T18:09:37.331Z,3.56
2018-02-19T18:14:42.019Z,3.43
2018-02-19T18:19:46.657Z,3.41
2018-02-19T18:24:51.518Z,3.39
2018-02-19T18:29:58.291Z,3.32
2018-02-19T18:35:01.617Z,3.38
2018-02-19T18:40:11.470Z,3.29
2018-02-19T18:45:16.090Z,3.25
2018-02-19T18:50:26.602Z,3.27
2018-02-19T18:55:31.450Z,3.22
2018-02-19T19:00:37.413Z,3.22
2018-02-19T19:05:45.433Z,3.23
2018-02-19T19:10:51.893Z,3.20
2018-02-19T19:15:59.467Z,3.35
2018-02-19T19:21:04.926Z,3.29
2018-02-19T19:26:09.671Z,3.26
2018-02-19T19:31:13.652Z,3.43
2018-02-19T19:36:20.352Z,3.42
2018-02-19T19:41:24.710Z,3.25
2018-02-19T19:46:34.279Z,3.34
2018-02-19T19:51:39.826Z,3.31
2018-02-19T19:56:45.836Z,3.27
2018-02-19T20:01:51.067Z,3.30
2018-02-19T20:07:01.801Z,3.39
2018-02-19T20:12:06.704Z,3.33
2018-02-19T20:17:12.109Z,3.23
2018-02-19T20:22:16.958Z,3.31
2018-02-19T20:27:32.337Z,3.28
2018-02-19T20:32:36.578Z,3.23
2018-02-19T20:37:44.831Z,3.39
2018-02-19T20:42:50.497Z,3.20
2018-02-19T20:47:56.821Z,3.38
2018-02-19T20:53:01.884Z,3.27
2018-02-19T20:58:08.485Z,3.23
2018-02-19T21:03:14.123Z,3.21
2018-02-19T21:08:25.426Z,3.18
2018-02-19T21:13:30.745Z,3.15
2018-02-19T21:18:42.154Z,3.21
2018-02-19T21:23:47.802Z,3.21
2018-02-19T21:29:06.771Z,3.26
2018-02-19T21:34:11.429Z,3.16
2018-02-19T21:39:20.541Z,3.14
2018-02-19T21:44:26.585Z,3.16
2018-02-19T21:49:36.675Z,3.19
2018-02-19T21:54:42.269Z,3.19
2018-02-19T21:59:52.330Z,3.24
2018-02-19T22:04:57.202Z,3.13
2018-02-19T22:10:01.329Z,3.13
2018-02-19T22:15:06.492Z,3.19
2018-02-19T22:20:11.362Z,3.22
2018-02-19T22:25:20.214Z,3.22
2018-02-19T22:30:25.017Z,3.11
2018-02-19T22:35:29.661Z,3.17
2018-02-19T22:40:35.063Z,3.21
2018-02-19T22:45:46.471Z,3.17
2018-02-19T22:50:51.269Z,3.27
2018-02-19T22:55:57.281Z,3.18
2018-02-19T23:01:02.645Z,3.14
2018-02-19T23:06:12.866Z,3.17
2018-02-19T23:11:17.528Z,3.28
2018-02-19T23:16:26.925Z,3.11
2018-02-19T23:26:44.965Z,3.16
2018-02-19T23:31:49.384Z,3.24
2018-02-19T23:37:05.803Z,3.31
2018-02-19T23:42:11.201Z,3.18
2018-02-19T23:47:16.932Z,3.20
2018-02-19T23:52:21.038Z,3.25
2018-02-19T23:57:31.294Z,3.21
